ACA895 CYUL-CYYZ
Flight info
| Callsign | ACA895 |
|---|---|
| Flight time | 0h 56m |
| Altitude | 40000 |
| Route | BOBKI DCT MELTI DCT TORNI RAGID6 |
| Aircraft | A333/H-SDE3GHIJ2J3J5M1RVWXY/LB2D1 |
Departure
| Time | 2026-05-07 01:41 |
|---|---|
| Airport | Montreal / Pierre Elliott Trudeau International Airport (CYUL) |
Arrival
| Time | 2026-05-07 02:38 |
|---|---|
| Airport | Toronto Pearson International Airport (CYYZ) |
| Time | Latitude | Longitude | Altitude | Speed | Heading |
|---|---|---|---|---|---|
| 2026-05-07 01:09 | 45.45900 | -73.74547 | 121 ft | 0 kts | 173° |
| 2026-05-07 01:28 | 45.45915 | -73.74550 | 118 ft | 2 kts | 170° |
| 2026-05-07 01:29 | 45.45931 | -73.74555 | 116 ft | 2 kts | 165° |
| 2026-05-07 01:29 | 45.45947 | -73.74563 | 118 ft | 2 kts | 154° |
| 2026-05-07 01:29 | 45.45959 | -73.74578 | 116 ft | 2 kts | 100° |
| 2026-05-07 01:29 | 45.45959 | -73.74597 | 116 ft | 1 kts | 72° |
| 2026-05-07 01:30 | 45.45958 | -73.74600 | 116 ft | 0 kts | 71° |
| 2026-05-07 01:33 | 45.45959 | -73.74595 | 116 ft | 1 kts | 71° |
| 2026-05-07 01:33 | 45.45965 | -73.74572 | 116 ft | 4 kts | 71° |
| 2026-05-07 01:34 | 45.45976 | -73.74525 | 119 ft | 6 kts | 71° |
| 2026-05-07 01:34 | 45.45995 | -73.74448 | 118 ft | 11 kts | 69° |
| 2026-05-07 01:34 | 45.46041 | -73.74336 | 114 ft | 15 kts | 51° |
| 2026-05-07 01:34 | 45.46119 | -73.74215 | 116 ft | 17 kts | 45° |
| 2026-05-07 01:35 | 45.46213 | -73.74103 | 115 ft | 19 kts | 40° |
| 2026-05-07 01:35 | 45.46303 | -73.73991 | 121 ft | 16 kts | 44° |
| 2026-05-07 01:35 | 45.46347 | -73.73845 | 120 ft | 18 kts | 83° |
| 2026-05-07 01:35 | 45.46415 | -73.73693 | 119 ft | 20 kts | 44° |
| 2026-05-07 01:36 | 45.46524 | -73.73552 | 116 ft | 23 kts | 42° |
| 2026-05-07 01:36 | 45.46648 | -73.73392 | 115 ft | 26 kts | 43° |
| 2026-05-07 01:36 | 45.46783 | -73.73211 | 116 ft | 27 kts | 43° |
| 2026-05-07 01:36 | 45.46921 | -73.73031 | 115 ft | 27 kts | 43° |
| 2026-05-07 01:37 | 45.47058 | -73.72851 | 117 ft | 27 kts | 43° |
| 2026-05-07 01:37 | 45.47158 | -73.72720 | 118 ft | 19 kts | 42° |
| 2026-05-07 01:37 | 45.47261 | -73.72590 | 115 ft | 22 kts | 42° |
| 2026-05-07 01:37 | 45.47373 | -73.72439 | 114 ft | 23 kts | 46° |
| 2026-05-07 01:38 | 45.47490 | -73.72280 | 114 ft | 23 kts | 41° |
| 2026-05-07 01:38 | 45.47611 | -73.72127 | 116 ft | 24 kts | 41° |
| 2026-05-07 01:38 | 45.47730 | -73.71971 | 120 ft | 21 kts | 43° |
| 2026-05-07 01:38 | 45.47818 | -73.71832 | 116 ft | 12 kts | 71° |
| 2026-05-07 01:39 | 45.47803 | -73.71792 | 117 ft | 6 kts | 132° |
| 2026-05-07 01:39 | 45.47770 | -73.71742 | 112 ft | 0 kts | 134° |
| 2026-05-07 01:39 | 45.47769 | -73.71740 | 112 ft | 0 kts | 134° |
| 2026-05-07 01:39 | 45.47763 | -73.71732 | 112 ft | 4 kts | 134° |
| 2026-05-07 01:40 | 45.47730 | -73.71683 | 114 ft | 9 kts | 136° |
| 2026-05-07 01:40 | 45.47663 | -73.71668 | 114 ft | 11 kts | 201° |
| 2026-05-07 01:40 | 45.47626 | -73.71707 | 113 ft | 4 kts | 223° |
| 2026-05-07 01:40 | 45.47576 | -73.71772 | 115 ft | 21 kts | 222° |
| 2026-05-07 01:41 | 45.47301 | -73.72132 | 111 ft | 86 kts | 223° |
| 2026-05-07 01:41 | 45.46714 | -73.72904 | 113 ft | 143 kts | 224° |
| 2026-05-07 01:41 | 45.45864 | -73.73983 | 303 ft | 182 kts | 221° |
| 2026-05-07 01:41 | 45.44899 | -73.75219 | 1146 ft | 184 kts | 225° |
| 2026-05-07 01:42 | 45.44019 | -73.76435 | 2341 ft | 174 kts | 228° |
| 2026-05-07 01:42 | 45.43115 | -73.77689 | 2888 ft | 193 kts | 229° |
| 2026-05-07 01:42 | 45.42103 | -73.79140 | 3230 ft | 220 kts | 234° |
| 2026-05-07 01:42 | 45.41345 | -73.81148 | 3592 ft | 240 kts | 255° |
| 2026-05-07 01:43 | 45.41014 | -73.83522 | 4314 ft | 248 kts | 265° |
| 2026-05-07 01:43 | 45.40920 | -73.85996 | 5137 ft | 253 kts | 270° |
| 2026-05-07 01:43 | 45.40951 | -73.88478 | 5741 ft | 255 kts | 272° |
| 2026-05-07 01:43 | 45.41034 | -73.91007 | 5981 ft | 257 kts | 274° |
| 2026-05-07 01:44 | 45.41126 | -73.93551 | 6001 ft | 258 kts | 273° |
| 2026-05-07 01:44 | 45.41205 | -73.96098 | 6001 ft | 258 kts | 272° |
| 2026-05-07 01:44 | 45.41264 | -73.98624 | 5997 ft | 258 kts | 272° |
| 2026-05-07 01:44 | 45.41307 | -74.01182 | 6003 ft | 258 kts | 271° |
| 2026-05-07 01:45 | 45.41339 | -74.03734 | 6327 ft | 259 kts | 271° |
| 2026-05-07 01:45 | 45.41365 | -74.06321 | 7106 ft | 261 kts | 271° |
| 2026-05-07 01:45 | 45.41388 | -74.08895 | 8150 ft | 259 kts | 270° |
| 2026-05-07 01:45 | 45.41411 | -74.11455 | 9182 ft | 258 kts | 270° |
| 2026-05-07 01:46 | 45.41433 | -74.14011 | 10112 ft | 260 kts | 269° |
| 2026-05-07 01:46 | 45.41455 | -74.16652 | 10622 ft | 276 kts | 269° |
| 2026-05-07 01:46 | 45.41478 | -74.19497 | 10958 ft | 297 kts | 269° |
| 2026-05-07 01:46 | 45.41502 | -74.22484 | 11586 ft | 305 kts | 269° |
| 2026-05-07 01:47 | 45.41529 | -74.25519 | 12435 ft | 308 kts | 269° |
| 2026-05-07 01:47 | 45.41556 | -74.28564 | 13322 ft | 309 kts | 269° |
| 2026-05-07 01:47 | 45.41582 | -74.31628 | 14158 ft | 310 kts | 269° |
| 2026-05-07 01:47 | 45.41606 | -74.34714 | 14864 ft | 313 kts | 268° |
| 2026-05-07 01:48 | 45.41630 | -74.37832 | 15580 ft | 317 kts | 268° |
| 2026-05-07 01:48 | 45.41630 | -74.40982 | 16296 ft | 319 kts | 264° |
| 2026-05-07 01:48 | 45.41371 | -74.44120 | 17029 ft | 320 kts | 258° |
| 2026-05-07 01:48 | 45.40966 | -74.47240 | 17763 ft | 322 kts | 256° |
| 2026-05-07 01:49 | 45.40486 | -74.50378 | 18434 ft | 325 kts | 255° |
| 2026-05-07 01:49 | 45.39963 | -74.53526 | 19026 ft | 328 kts | 254° |
| 2026-05-07 01:49 | 45.39424 | -74.56659 | 19583 ft | 332 kts | 254° |
| 2026-05-07 01:49 | 45.38868 | -74.59870 | 20144 ft | 336 kts | 254° |
| 2026-05-07 01:50 | 45.38310 | -74.63111 | 20726 ft | 339 kts | 254° |
| 2026-05-07 01:50 | 45.37750 | -74.66385 | 21286 ft | 342 kts | 254° |
| 2026-05-07 01:50 | 45.37190 | -74.69677 | 21842 ft | 345 kts | 254° |
| 2026-05-07 01:50 | 45.36624 | -74.73024 | 22394 ft | 349 kts | 254° |
| 2026-05-07 01:51 | 45.36057 | -74.76377 | 23024 ft | 350 kts | 254° |
| 2026-05-07 01:51 | 45.35484 | -74.79762 | 23561 ft | 353 kts | 254° |
| 2026-05-07 01:51 | 45.34906 | -74.83174 | 23952 ft | 357 kts | 254° |
| 2026-05-07 01:51 | 45.34318 | -74.86631 | 24351 ft | 361 kts | 254° |
| 2026-05-07 01:52 | 45.33721 | -74.90118 | 24761 ft | 364 kts | 254° |
| 2026-05-07 01:52 | 45.33125 | -74.93586 | 25169 ft | 367 kts | 253° |
| 2026-05-07 01:52 | 45.32509 | -74.97169 | 25581 ft | 371 kts | 253° |
| 2026-05-07 01:52 | 45.31892 | -75.00744 | 25987 ft | 374 kts | 253° |
| 2026-05-07 01:53 | 45.31270 | -75.04346 | 26378 ft | 377 kts | 253° |
| 2026-05-07 01:53 | 45.30651 | -75.07924 | 26780 ft | 379 kts | 253° |
| 2026-05-07 01:53 | 45.30016 | -75.11581 | 27170 ft | 382 kts | 253° |
| 2026-05-07 01:53 | 45.29376 | -75.15262 | 27562 ft | 385 kts | 253° |
| 2026-05-07 01:54 | 45.28732 | -75.18962 | 28018 ft | 387 kts | 253° |
| 2026-05-07 01:54 | 45.28086 | -75.22666 | 28550 ft | 387 kts | 253° |
| 2026-05-07 01:54 | 45.27433 | -75.26399 | 28944 ft | 390 kts | 253° |
| 2026-05-07 01:54 | 45.26777 | -75.30144 | 29311 ft | 393 kts | 253° |
| 2026-05-07 01:55 | 45.26111 | -75.33934 | 29688 ft | 396 kts | 253° |
| 2026-05-07 01:55 | 45.25441 | -75.37741 | 30049 ft | 398 kts | 253° |
| 2026-05-07 01:55 | 45.24768 | -75.41558 | 30406 ft | 400 kts | 253° |
| 2026-05-07 01:55 | 45.24090 | -75.45397 | 30788 ft | 401 kts | 253° |
| 2026-05-07 01:56 | 45.23409 | -75.49241 | 31105 ft | 403 kts | 253° |
| 2026-05-07 01:56 | 45.22731 | -75.53063 | 31421 ft | 405 kts | 254° |
| 2026-05-07 01:56 | 45.22042 | -75.56938 | 31792 ft | 406 kts | 254° |
| 2026-05-07 01:56 | 45.21351 | -75.60817 | 32176 ft | 406 kts | 254° |
| 2026-05-07 01:57 | 45.20662 | -75.64673 | 32815 ft | 401 kts | 255° |
| 2026-05-07 01:57 | 45.19974 | -75.68520 | 33452 ft | 396 kts | 255° |
| 2026-05-07 01:57 | 45.19296 | -75.72299 | 33932 ft | 393 kts | 255° |
| 2026-05-07 01:57 | 45.18621 | -75.76055 | 34264 ft | 393 kts | 255° |
| 2026-05-07 01:58 | 45.17955 | -75.79752 | 34570 ft | 393 kts | 255° |
| 2026-05-07 01:58 | 45.17277 | -75.83502 | 34869 ft | 393 kts | 255° |
| 2026-05-07 01:58 | 45.16599 | -75.87252 | 35184 ft | 392 kts | 255° |
| 2026-05-07 01:58 | 45.15924 | -75.90979 | 35496 ft | 392 kts | 255° |
| 2026-05-07 01:59 | 45.15246 | -75.94713 | 35818 ft | 391 kts | 255° |
| 2026-05-07 01:59 | 45.14566 | -75.98445 | 36114 ft | 391 kts | 255° |
| 2026-05-07 01:59 | 45.13888 | -76.02164 | 36401 ft | 391 kts | 255° |
| 2026-05-07 01:59 | 45.13210 | -76.05873 | 36697 ft | 390 kts | 255° |
| 2026-05-07 02:00 | 45.12757 | -76.08350 | 36898 ft | 390 kts | 255° |
| 2026-05-07 02:00 | 45.12068 | -76.12110 | 37146 ft | 390 kts | 255° |
| 2026-05-07 02:00 | 45.11395 | -76.15774 | 37501 ft | 388 kts | 255° |
| 2026-05-07 02:00 | 45.10713 | -76.19455 | 37836 ft | 386 kts | 254° |
| 2026-05-07 02:01 | 45.09874 | -76.23063 | 38094 ft | 387 kts | 249° |
| 2026-05-07 02:01 | 45.08724 | -76.26516 | 38335 ft | 388 kts | 244° |
| 2026-05-07 02:01 | 45.07427 | -76.29874 | 38571 ft | 389 kts | 243° |
| 2026-05-07 02:01 | 45.06106 | -76.33208 | 38749 ft | 389 kts | 243° |
| 2026-05-07 02:02 | 45.04781 | -76.36546 | 38907 ft | 390 kts | 243° |
| 2026-05-07 02:02 | 45.03451 | -76.39897 | 39068 ft | 391 kts | 243° |
| 2026-05-07 02:02 | 45.02122 | -76.43250 | 39227 ft | 391 kts | 243° |
| 2026-05-07 02:02 | 45.00788 | -76.46614 | 39385 ft | 392 kts | 243° |
| 2026-05-07 02:03 | 44.99454 | -76.49977 | 39541 ft | 393 kts | 243° |
| 2026-05-07 02:03 | 44.98117 | -76.53344 | 39697 ft | 394 kts | 243° |
| 2026-05-07 02:03 | 44.96769 | -76.56738 | 39622 ft | 399 kts | 243° |
| 2026-05-07 02:03 | 44.95401 | -76.60177 | 39091 ft | 403 kts | 243° |
| 2026-05-07 02:04 | 44.94014 | -76.63659 | 38444 ft | 407 kts | 243° |
| 2026-05-07 02:04 | 44.92626 | -76.67140 | 37682 ft | 409 kts | 243° |
| 2026-05-07 02:04 | 44.91222 | -76.70654 | 36923 ft | 412 kts | 243° |
| 2026-05-07 02:04 | 44.89810 | -76.74186 | 36192 ft | 414 kts | 242° |
| 2026-05-07 02:05 | 44.88391 | -76.77729 | 35509 ft | 415 kts | 242° |
| 2026-05-07 02:05 | 44.86974 | -76.81264 | 34839 ft | 416 kts | 242° |
| 2026-05-07 02:05 | 44.85549 | -76.84815 | 34187 ft | 416 kts | 242° |
| 2026-05-07 02:05 | 44.84135 | -76.88333 | 33459 ft | 417 kts | 242° |
| 2026-05-07 02:06 | 44.82701 | -76.91898 | 32558 ft | 419 kts | 242° |
| 2026-05-07 02:06 | 44.81261 | -76.95473 | 31693 ft | 421 kts | 242° |
| 2026-05-07 02:06 | 44.79819 | -76.99052 | 30982 ft | 420 kts | 241° |
| 2026-05-07 02:06 | 44.78385 | -77.02604 | 30473 ft | 415 kts | 242° |
| 2026-05-07 02:07 | 44.76960 | -77.06133 | 29808 ft | 413 kts | 241° |
| 2026-05-07 02:07 | 44.74167 | -77.13034 | 28734 ft | 400 kts | 241° |
| 2026-05-07 02:07 | 44.72802 | -77.16401 | 28358 ft | 391 kts | 241° |
| 2026-05-07 02:08 | 44.71466 | -77.19692 | 27992 ft | 383 kts | 241° |
| 2026-05-07 02:08 | 44.70161 | -77.22905 | 27615 ft | 375 kts | 241° |
| 2026-05-07 02:08 | 44.68881 | -77.26051 | 27276 ft | 367 kts | 241° |
| 2026-05-07 02:08 | 44.67623 | -77.29142 | 26923 ft | 360 kts | 240° |
| 2026-05-07 02:09 | 44.66391 | -77.32165 | 26573 ft | 353 kts | 241° |
| 2026-05-07 02:09 | 44.65180 | -77.35132 | 26222 ft | 347 kts | 240° |
| 2026-05-07 02:09 | 44.63988 | -77.38051 | 25873 ft | 342 kts | 240° |
| 2026-05-07 02:09 | 44.62815 | -77.40919 | 25550 ft | 336 kts | 240° |
| 2026-05-07 02:10 | 44.61656 | -77.43751 | 25228 ft | 331 kts | 240° |
| 2026-05-07 02:10 | 44.60514 | -77.46539 | 24904 ft | 329 kts | 240° |
| 2026-05-07 02:10 | 44.59376 | -77.49313 | 24583 ft | 327 kts | 240° |
| 2026-05-07 02:10 | 44.58250 | -77.52056 | 24249 ft | 322 kts | 240° |
| 2026-05-07 02:11 | 44.57136 | -77.54767 | 23928 ft | 319 kts | 240° |
| 2026-05-07 02:11 | 44.56029 | -77.57459 | 23610 ft | 319 kts | 240° |
| 2026-05-07 02:11 | 44.54920 | -77.60153 | 23280 ft | 317 kts | 240° |
| 2026-05-07 02:11 | 44.53830 | -77.62799 | 22966 ft | 316 kts | 240° |
| 2026-05-07 02:12 | 44.52732 | -77.65459 | 22670 ft | 315 kts | 240° |
| 2026-05-07 02:12 | 44.51633 | -77.68121 | 22340 ft | 314 kts | 240° |
| 2026-05-07 02:12 | 44.50534 | -77.70779 | 22029 ft | 315 kts | 240° |
| 2026-05-07 02:12 | 44.49452 | -77.73392 | 21725 ft | 314 kts | 240° |
| 2026-05-07 02:13 | 44.48356 | -77.76034 | 21439 ft | 313 kts | 240° |
| 2026-05-07 02:13 | 44.47255 | -77.78687 | 21126 ft | 311 kts | 240° |
| 2026-05-07 02:13 | 44.46166 | -77.81310 | 20819 ft | 310 kts | 241° |
| 2026-05-07 02:13 | 44.45097 | -77.83883 | 20511 ft | 309 kts | 241° |
| 2026-05-07 02:14 | 44.44021 | -77.86468 | 20200 ft | 308 kts | 241° |
| 2026-05-07 02:14 | 44.42944 | -77.89053 | 19889 ft | 307 kts | 241° |
| 2026-05-07 02:14 | 44.41869 | -77.91633 | 19592 ft | 306 kts | 241° |
| 2026-05-07 02:14 | 44.40799 | -77.94198 | 19314 ft | 305 kts | 241° |
| 2026-05-07 02:15 | 44.39737 | -77.96741 | 18999 ft | 302 kts | 241° |
| 2026-05-07 02:15 | 44.38679 | -77.99274 | 18698 ft | 301 kts | 241° |
| 2026-05-07 02:15 | 44.37624 | -78.01794 | 18399 ft | 300 kts | 241° |
| 2026-05-07 02:15 | 44.36575 | -78.04302 | 18081 ft | 299 kts | 241° |
| 2026-05-07 02:16 | 44.35523 | -78.06811 | 17773 ft | 300 kts | 241° |
| 2026-05-07 02:16 | 44.34473 | -78.09313 | 17513 ft | 299 kts | 241° |
| 2026-05-07 02:16 | 44.33416 | -78.11829 | 17211 ft | 299 kts | 241° |
| 2026-05-07 02:16 | 44.32365 | -78.14326 | 16895 ft | 298 kts | 241° |
| 2026-05-07 02:17 | 44.31315 | -78.16819 | 16594 ft | 297 kts | 241° |
| 2026-05-07 02:17 | 44.30271 | -78.19298 | 16294 ft | 296 kts | 241° |
| 2026-05-07 02:17 | 44.29224 | -78.21780 | 15992 ft | 296 kts | 241° |
| 2026-05-07 02:17 | 44.28186 | -78.24239 | 15685 ft | 295 kts | 241° |
| 2026-05-07 02:18 | 44.27142 | -78.26710 | 15362 ft | 294 kts | 241° |
| 2026-05-07 02:18 | 44.26108 | -78.29155 | 15084 ft | 294 kts | 241° |
| 2026-05-07 02:18 | 44.25070 | -78.31608 | 14788 ft | 293 kts | 242° |
| 2026-05-07 02:18 | 44.24030 | -78.34063 | 14482 ft | 293 kts | 242° |
| 2026-05-07 02:19 | 44.23007 | -78.36474 | 14192 ft | 292 kts | 242° |
| 2026-05-07 02:19 | 44.21962 | -78.38937 | 13888 ft | 292 kts | 242° |
| 2026-05-07 02:19 | 44.20927 | -78.41376 | 13561 ft | 291 kts | 242° |
| 2026-05-07 02:19 | 44.19908 | -78.43772 | 13246 ft | 290 kts | 242° |
| 2026-05-07 02:20 | 44.18878 | -78.46193 | 12965 ft | 290 kts | 242° |
| 2026-05-07 02:20 | 44.17851 | -78.48607 | 12668 ft | 290 kts | 242° |
| 2026-05-07 02:20 | 44.16823 | -78.51020 | 12366 ft | 289 kts | 242° |
| 2026-05-07 02:20 | 44.15815 | -78.53382 | 12064 ft | 289 kts | 242° |
| 2026-05-07 02:21 | 44.14789 | -78.55787 | 11763 ft | 288 kts | 241° |
| 2026-05-07 02:21 | 44.13761 | -78.58195 | 11479 ft | 288 kts | 241° |
| 2026-05-07 02:21 | 44.12742 | -78.60576 | 11190 ft | 288 kts | 241° |
| 2026-05-07 02:21 | 44.11722 | -78.62961 | 10899 ft | 287 kts | 241° |
| 2026-05-07 02:22 | 44.10727 | -78.65283 | 10767 ft | 276 kts | 241° |
| 2026-05-07 02:22 | 44.09765 | -78.67521 | 10680 ft | 263 kts | 241° |
| 2026-05-07 02:22 | 44.08842 | -78.69673 | 10562 ft | 255 kts | 242° |
| 2026-05-07 02:22 | 44.07935 | -78.71785 | 10439 ft | 247 kts | 242° |
| 2026-05-07 02:23 | 44.07077 | -78.73783 | 10325 ft | 241 kts | 242° |
| 2026-05-07 02:23 | 44.06216 | -78.75789 | 10128 ft | 242 kts | 242° |
| 2026-05-07 02:23 | 44.05355 | -78.77795 | 9898 ft | 242 kts | 242° |
| 2026-05-07 02:23 | 44.04487 | -78.79777 | 9667 ft | 242 kts | 239° |
| 2026-05-07 02:24 | 44.03451 | -78.81614 | 9476 ft | 243 kts | 232° |
| 2026-05-07 02:24 | 44.02317 | -78.83355 | 9239 ft | 243 kts | 231° |
| 2026-05-07 02:24 | 44.01166 | -78.85076 | 9036 ft | 243 kts | 231° |
| 2026-05-07 02:24 | 44.00015 | -78.86794 | 8820 ft | 242 kts | 231° |
| 2026-05-07 02:25 | 43.98869 | -78.88507 | 8595 ft | 241 kts | 231° |
| 2026-05-07 02:25 | 43.97730 | -78.90213 | 8382 ft | 241 kts | 231° |
| 2026-05-07 02:25 | 43.96604 | -78.91896 | 8247 ft | 233 kts | 231° |
| 2026-05-07 02:25 | 43.95523 | -78.93510 | 8163 ft | 223 kts | 231° |
| 2026-05-07 02:26 | 43.94483 | -78.95065 | 8074 ft | 216 kts | 232° |
| 2026-05-07 02:26 | 43.93472 | -78.96577 | 7966 ft | 213 kts | 232° |
| 2026-05-07 02:26 | 43.92463 | -78.98091 | 7797 ft | 214 kts | 232° |
| 2026-05-07 02:26 | 43.91449 | -78.99612 | 7615 ft | 214 kts | 232° |
| 2026-05-07 02:27 | 43.90441 | -79.01120 | 7423 ft | 213 kts | 232° |
| 2026-05-07 02:27 | 43.89432 | -79.02628 | 7258 ft | 213 kts | 232° |
| 2026-05-07 02:27 | 43.88426 | -79.04133 | 7059 ft | 213 kts | 232° |
| 2026-05-07 02:27 | 43.87553 | -79.05797 | 6927 ft | 219 kts | 247° |
| 2026-05-07 02:28 | 43.87214 | -79.07805 | 6733 ft | 214 kts | 272° |
| 2026-05-07 02:28 | 43.87367 | -79.09856 | 6577 ft | 214 kts | 281° |
| 2026-05-07 02:28 | 43.87630 | -79.11885 | 6407 ft | 214 kts | 282° |
| 2026-05-07 02:28 | 43.87904 | -79.13915 | 6245 ft | 214 kts | 282° |
| 2026-05-07 02:29 | 43.88172 | -79.15938 | 6093 ft | 213 kts | 282° |
| 2026-05-07 02:29 | 43.88435 | -79.17963 | 5929 ft | 213 kts | 282° |
| 2026-05-07 02:29 | 43.88692 | -79.19976 | 5774 ft | 212 kts | 282° |
| 2026-05-07 02:29 | 43.88862 | -79.21320 | 5667 ft | 211 kts | 282° |
| 2026-05-07 02:30 | 43.88939 | -79.21933 | 5620 ft | 211 kts | 282° |
| 2026-05-07 02:30 | 43.89436 | -79.25896 | 5309 ft | 210 kts | 282° |
| 2026-05-07 02:30 | 43.89685 | -79.27886 | 5162 ft | 209 kts | 282° |
| 2026-05-07 02:30 | 43.89930 | -79.29853 | 5005 ft | 209 kts | 282° |
| 2026-05-07 02:31 | 43.90055 | -79.31869 | 4835 ft | 211 kts | 269° |
| 2026-05-07 02:31 | 43.89653 | -79.33831 | 4692 ft | 217 kts | 245° |
| 2026-05-07 02:31 | 43.88738 | -79.35494 | 4522 ft | 222 kts | 233° |
| 2026-05-07 02:31 | 43.87669 | -79.37050 | 4359 ft | 223 kts | 231° |
| 2026-05-07 02:32 | 43.86584 | -79.38585 | 4174 ft | 222 kts | 231° |
| 2026-05-07 02:32 | 43.85507 | -79.40118 | 4021 ft | 222 kts | 231° |
| 2026-05-07 02:32 | 43.84435 | -79.41657 | 3860 ft | 221 kts | 231° |
| 2026-05-07 02:32 | 43.83370 | -79.43194 | 3690 ft | 221 kts | 230° |
| 2026-05-07 02:33 | 43.82302 | -79.44741 | 3537 ft | 222 kts | 230° |
| 2026-05-07 02:33 | 43.81242 | -79.46275 | 3354 ft | 222 kts | 230° |
| 2026-05-07 02:33 | 43.80177 | -79.47824 | 3196 ft | 222 kts | 230° |
| 2026-05-07 02:33 | 43.79134 | -79.49344 | 3043 ft | 221 kts | 230° |
| 2026-05-07 02:34 | 43.78098 | -79.50853 | 2957 ft | 212 kts | 230° |
| 2026-05-07 02:34 | 43.77122 | -79.52271 | 2880 ft | 199 kts | 230° |
| 2026-05-07 02:34 | 43.76203 | -79.53607 | 2758 ft | 186 kts | 230° |
| 2026-05-07 02:34 | 43.75348 | -79.54868 | 2628 ft | 173 kts | 230° |
| 2026-05-07 02:35 | 43.74577 | -79.55986 | 2521 ft | 163 kts | 230° |
| 2026-05-07 02:35 | 43.73830 | -79.57071 | 2414 ft | 151 kts | 230° |
| 2026-05-07 02:35 | 43.73135 | -79.58124 | 2128 ft | 148 kts | 232° |
| 2026-05-07 02:35 | 43.72910 | -79.58472 | 2009 ft | 148 kts | 232° |
| 2026-05-07 02:36 | 43.72750 | -79.58714 | 1932 ft | 148 kts | 230° |
| 2026-05-07 02:36 | 43.72034 | -79.59709 | 1558 ft | 148 kts | 229° |
| 2026-05-07 02:36 | 43.71318 | -79.60732 | 1224 ft | 144 kts | 231° |
| 2026-05-07 02:36 | 43.70643 | -79.61709 | 983 ft | 137 kts | 227° |
| 2026-05-07 02:37 | 43.69997 | -79.62674 | 815 ft | 138 kts | 229° |
| 2026-05-07 02:37 | 43.69323 | -79.63625 | 643 ft | 138 kts | 227° |
| 2026-05-07 02:37 | 43.68673 | -79.64567 | 574 ft | 132 kts | 231° |
| 2026-05-07 02:37 | 43.68149 | -79.65347 | 572 ft | 84 kts | 225° |
| 2026-05-07 02:38 | 43.67905 | -79.65752 | 573 ft | 27 kts | 251° |
| 2026-05-07 02:38 | 43.67875 | -79.65929 | 568 ft | 11 kts | 271° |
| 2026-05-07 02:38 | 43.67910 | -79.65969 | 570 ft | 6 kts | 1° |